Time;durP1;ratioP1;P1;durP2;ratioP2;P2;SDS_P1;SDS_P2;PMS_P1;PMS_P2;Temp;Humidity;BMP_temperature;BMP_pressure;BME280_temperature;BME280_humidity;BME280_pressure;Samples;Min_cycle;Max_cycle;Signal;HPM_P1;HPM_P2
2022/04/07 00:00:03;;;;;;;;;;;10.00;99.90;;;;;;5039027;28;19929;-70
2022/04/07 00:02:31;;;;;;;;;;;10.00;99.90;;;;;;5041971;28;20409;-70
2022/04/07 00:04:57;;;;;;;;;;;10.00;99.90;;;;;;5029932;28;19932;-71
2022/04/07 00:07:24;;;;;;;;;;;10.00;99.90;;;;;;5038291;28;20282;-72
2022/04/07 00:09:51;;;;;;;;;;;9.90;99.90;;;;;;5034959;28;19956;-72
2022/04/07 00:12:17;;;;;;;;;;;9.90;99.90;;;;;;5034473;28;19925;-70
2022/04/07 00:14:44;;;;;;;;;;;9.80;99.90;;;;;;5036044;28;19951;-73
2022/04/07 00:17:12;;;;;;;;;;;9.80;99.90;;;;;;5048049;28;20410;-71
2022/04/07 00:19:39;;;;;;;;;;;9.80;99.90;;;;;;5034261;28;19929;-70
2022/04/07 00:22:05;;;;;;;;;;;9.80;99.90;;;;;;5025800;28;19924;-69
2022/04/07 00:24:32;;;;;;;;;;;9.90;99.90;;;;;;5036568;28;19935;-70
2022/04/07 00:26:59;;;;;;;;;;;9.90;99.90;;;;;;5035226;28;19929;-74
2022/04/07 00:29:25;;;;;;;;;;;9.90;99.90;;;;;;5033116;28;19925;-70
2022/04/07 00:31:56;;;;;;;;;;;9.30;99.90;;;;;;5043842;28;20306;-70
2022/04/07 00:34:24;;;;;;;;;;;9.90;99.90;;;;;;5037963;28;19928;-72
2022/04/07 00:36:51;;;;;;;;;;;10.00;99.90;;;;;;5039690;28;19929;-73
2022/04/07 00:39:17;;;;;;;;;;;11.50;99.90;;;;;;5033837;28;20379;-72
2022/04/07 00:41:45;;;;;;;;;;;10.00;99.90;;;;;;5044361;28;19929;-72
2022/04/07 00:44:12;;;;;;;;;;;10.00;99.90;;;;;;5031006;28;19929;-71
2022/04/07 00:46:40;;;;;;;;;;;10.00;99.90;;;;;;5027893;28;19929;-73
2022/04/07 00:49:06;;;;;;;;;;;10.00;99.90;;;;;;5033420;28;19925;-71
2022/04/07 00:51:35;;;;;;;;;;;10.00;99.90;;;;;;5037870;28;19959;-74
2022/04/07 00:54:02;;;;;;;;;;;9.90;99.90;;;;;;5036536;28;19940;-71
2022/04/07 00:56:29;;;;;;;;;;;11.60;99.90;;;;;;4965950;28;1749221;-71
2022/04/07 00:58:55;;;;;;;;;;;9.80;99.90;;;;;;5037720;28;19936;-72
2022/04/07 01:01:24;;;;;;;;;;;9.70;99.90;;;;;;5034980;28;19936;-71
2022/04/07 01:03:51;;;;;;;;;;;9.60;99.90;;;;;;5037168;28;19950;-71
2022/04/07 01:06:19;;;;;;;;;;;9.50;99.90;;;;;;5035699;28;20597;-72
2022/04/07 01:08:47;;;;;;;;;;;9.50;99.90;;;;;;5043778;28;19933;-71
2022/04/07 01:11:14;;;;;;;;;;;9.50;99.90;;;;;;5039264;28;19947;-71
2022/04/07 01:13:45;;;;;;;;;;;9.50;99.90;;;;;;5031503;28;19970;-72
2022/04/07 01:16:11;;;;;;;;;;;9.60;99.90;;;;;;5043856;28;19928;-73
2022/04/07 01:18:38;;;;;;;;;;;9.60;99.90;;;;;;5040165;28;19932;-72
2022/04/07 01:21:06;;;;;;;;;;;9.60;99.90;;;;;;5039789;28;19928;-72
2022/04/07 01:23:35;;;;;;;;;;;9.70;99.90;;;;;;5038751;28;19980;-69
2022/04/07 01:26:03;;;;;;;;;;;9.70;99.90;;;;;;5030640;28;19933;-72
2022/04/07 01:28:29;;;;;;;;;;;9.70;99.90;;;;;;5034383;28;20457;-73
2022/04/07 01:30:56;;;;;;;;;;;9.70;99.90;;;;;;5031093;28;19948;-70
2022/04/07 01:33:23;;;;;;;;;;;9.80;99.90;;;;;;5031689;28;19929;-70
2022/04/07 01:35:50;;;;;;;;;;;9.80;99.90;;;;;;5032615;28;19929;-72
2022/04/07 01:38:18;;;;;;;;;;;9.80;99.90;;;;;;5036486;28;20392;-72
2022/04/07 01:40:45;;;;;;;;;;;9.90;99.90;;;;;;5036341;28;20485;-72
2022/04/07 01:43:15;;;;;;;;;;;9.90;99.90;;;;;;5041627;28;19933;-71
2022/04/07 01:45:42;;;;;;;;;;;10.00;99.90;;;;;;5039769;28;19933;-70
2022/04/07 01:48:09;;;;;;;;;;;9.90;99.90;;;;;;5042832;28;19924;-70
2022/04/07 01:50:38;;;;;;;;;;;10.00;99.90;;;;;;5046255;28;19991;-68
2022/04/07 01:53:05;;;;;;;;;;;10.00;99.90;;;;;;5041782;28;20199;-67
2022/04/07 01:55:32;;;;;;;;;;;10.10;99.90;;;;;;5045674;28;20009;-68
2022/04/07 01:57:59;;;;;;;;;;;10.10;99.90;;;;;;5042956;28;19939;-68
2022/04/07 02:00:27;;;;;;;;;;;10.20;99.90;;;;;;5040196;28;19933;-67
2022/04/07 02:02:54;;;;;;;;;;;10.30;99.90;;;;;;5045019;28;19950;-70
2022/04/07 02:05:21;;;;;;;;;;;10.30;99.90;;;;;;5053451;28;19975;-68
2022/04/07 02:07:48;;;;;;;;;;;10.30;99.90;;;;;;5038064;28;19933;-68
2022/04/07 02:10:15;;;;;;;;;;;10.30;99.90;;;;;;5040512;28;19936;-68
2022/04/07 02:12:42;;;;;;;;;;;10.30;99.90;;;;;;5050760;28;19929;-68
2022/04/07 02:15:09;;;;;;;;;;;10.30;99.90;;;;;;5038967;28;19936;-68
2022/04/07 02:17:37;;;;;;;;;;;10.30;99.90;;;;;;5041259;28;20024;-68
2022/04/07 02:20:06;;;;;;;;;;;12.00;99.90;;;;;;5040594;28;19951;-68
2022/04/07 02:22:32;;;;;;;;;;;10.40;99.90;;;;;;5034389;28;20034;-72
2022/04/07 02:24:59;;;;;;;;;;;10.40;99.90;;;;;;5032477;28;19936;-71
2022/04/07 02:27:26;;;;;;;;;;;10.40;99.90;;;;;;5039583;28;19928;-71
2022/04/07 02:29:53;;;;;;;;;;;10.40;99.90;;;;;;5039243;28;19932;-73
2022/04/07 02:32:20;;;;;;;;;;;10.40;99.90;;;;;;5030466;28;19983;-70
2022/04/07 02:34:48;;;;;;;;;;;10.40;99.90;;;;;;5040135;28;20436;-70
2022/04/07 02:37:15;;;;;;;;;;;10.40;99.90;;;;;;5040010;28;20016;-68
2022/04/07 02:39:41;;;;;;;;;;;10.40;99.90;;;;;;5038579;28;19934;-68
2022/04/07 02:42:08;;;;;;;;;;;11.90;99.90;;;;;;5038113;28;19936;-68
2022/04/07 02:44:35;;;;;;;;;;;10.40;99.90;;;;;;5036228;28;20011;-68
2022/04/07 02:47:01;;;;;;;;;;;10.40;99.90;;;;;;5036822;28;19924;-71
2022/04/07 02:49:28;;;;;;;;;;;10.30;99.90;;;;;;5040363;28;19925;-71
2022/04/07 02:51:56;;;;;;;;;;;10.30;99.90;;;;;;5036013;28;19952;-71
2022/04/07 02:54:23;;;;;;;;;;;10.30;99.90;;;;;;5032659;28;19983;-70
2022/04/07 02:56:49;;;;;;;;;;;10.30;99.90;;;;;;5035294;28;19935;-71
2022/04/07 02:59:16;;;;;;;;;;;10.20;99.90;;;;;;5039262;28;20609;-71
2022/04/07 03:01:43;;;;;;;;;;;10.20;99.90;;;;;;5042951;28;19932;-71
2022/04/07 03:04:10;;;;;;;;;;;10.20;99.90;;;;;;5042352;28;19990;-71
2022/04/07 03:06:36;;;;;;;;;;;10.20;99.90;;;;;;5042660;28;19937;-71
2022/04/07 03:09:05;;;;;;;;;;;10.20;99.90;;;;;;5041335;28;19937;-70
2022/04/07 03:11:31;;;;;;;;;;;10.20;99.90;;;;;;5036521;28;19929;-70
2022/04/07 03:13:58;;;;;;;;;;;10.20;99.90;;;;;;5044793;28;19925;-71
2022/04/07 03:16:25;;;;;;;;;;;10.20;99.90;;;;;;5034793;28;20129;-72
2022/04/07 03:18:51;;;;;;;;;;;10.20;99.90;;;;;;5043669;28;20388;-71
2022/04/07 03:21:18;;;;;;;;;;;10.20;99.90;;;;;;5030810;28;20340;-71
2022/04/07 03:23:44;;;;;;;;;;;10.20;99.90;;;;;;5036709;28;19951;-71
2022/04/07 03:26:12;;;;;;;;;;;10.20;99.90;;;;;;5032799;28;19933;-71
2022/04/07 03:28:39;;;;;;;;;;;10.20;99.90;;;;;;5038941;28;19955;-71
2022/04/07 03:31:06;;;;;;;;;;;10.20;99.90;;;;;;5037698;28;19928;-72
2022/04/07 03:33:32;;;;;;;;;;;10.30;99.90;;;;;;5043788;28;19924;-71
2022/04/07 03:35:59;;;;;;;;;;;10.30;99.90;;;;;;5044468;28;19933;-73
2022/04/07 03:38:26;;;;;;;;;;;10.30;99.90;;;;;;5037467;28;20556;-72
2022/04/07 03:40:53;;;;;;;;;;;10.30;99.90;;;;;;5041924;28;19975;-71
2022/04/07 03:43:21;;;;;;;;;;;10.30;99.90;;;;;;5041238;28;19933;-72
2022/04/07 03:45:48;;;;;;;;;;;10.30;99.90;;;;;;5038740;28;19933;-72
2022/04/07 03:48:14;;;;;;;;;;;10.30;99.90;;;;;;5040302;28;19931;-70
2022/04/07 03:50:41;;;;;;;;;;;10.40;99.90;;;;;;5040573;28;19951;-70
2022/04/07 03:53:08;;;;;;;;;;;10.40;99.90;;;;;;5042827;28;20032;-73
2022/04/07 03:55:35;;;;;;;;;;;10.50;99.90;;;;;;5030201;28;19932;-70
2022/04/07 03:58:02;;;;;;;;;;;10.40;99.90;;;;;;5040638;28;19928;-70
2022/04/07 04:00:30;;;;;;;;;;;10.50;99.90;;;;;;5038275;28;19929;-73
2022/04/07 04:02:57;;;;;;;;;;;10.50;99.90;;;;;;5042777;28;20161;-71
2022/04/07 04:05:24;;;;;;;;;;;10.40;99.90;;;;;;5054347;28;20602;-70
2022/04/07 04:07:50;;;;;;;;;;;10.40;99.90;;;;;;5042031;28;19968;-72
2022/04/07 04:10:18;;;;;;;;;;;10.50;99.90;;;;;;5036777;28;20078;-71
2022/04/07 04:12:45;;;;;;;;;;;10.50;99.90;;;;;;5044676;28;20309;-71
2022/04/07 04:15:12;;;;;;;;;;;10.50;99.90;;;;;;5044903;28;20282;-71
2022/04/07 04:17:40;;;;;;;;;;;10.50;99.90;;;;;;5034622;28;19936;-70
2022/04/07 04:20:07;;;;;;;;;;;10.60;99.90;;;;;;5042580;28;20278;-71
2022/04/07 04:22:33;;;;;;;;;;;10.60;99.90;;;;;;5032728;28;19929;-71
2022/04/07 04:25:00;;;;;;;;;;;10.60;99.90;;;;;;5047505;28;20406;-72
2022/04/07 04:27:27;;;;;;;;;;;10.70;99.90;;;;;;5036766;28;19932;-72
2022/04/07 04:29:54;;;;;;;;;;;10.70;99.90;;;;;;5038966;28;20314;-72
2022/04/07 04:32:20;;;;;;;;;;;10.70;99.90;;;;;;5037627;28;20483;-71
2022/04/07 04:34:48;;;;;;;;;;;10.70;99.90;;;;;;5055212;28;19932;-72
2022/04/07 04:37:15;;;;;;;;;;;10.70;99.90;;;;;;5037678;28;20236;-71
2022/04/07 04:39:41;;;;;;;;;;;10.70;99.90;;;;;;5039779;28;19935;-70
2022/04/07 04:42:08;;;;;;;;;;;10.70;99.90;;;;;;5039116;28;20073;-71
2022/04/07 04:44:35;;;;;;;;;;;10.70;99.90;;;;;;5030210;28;19933;-74
2022/04/07 04:47:02;;;;;;;;;;;10.60;99.90;;;;;;5033590;28;19968;-71
2022/04/07 04:49:28;;;;;;;;;;;13.00;99.90;;;;;;5040216;28;19975;-69
2022/04/07 04:51:56;;;;;;;;;;;10.50;99.90;;;;;;5035863;28;19929;-68
2022/04/07 04:54:23;;;;;;;;;;;10.40;99.90;;;;;;5035257;28;19955;-69
2022/04/07 04:56:50;;;;;;;;;;;10.40;99.90;;;;;;5042756;28;19991;-69
2022/04/07 04:59:17;;;;;;;;;;;10.30;99.90;;;;;;5044070;22;19933;-73
2022/04/07 05:01:43;;;;;;;;;;;10.20;99.90;;;;;;5012602;28;20028;-73
2022/04/07 05:04:10;;;;;;;;;;;12.70;99.90;;;;;;5008614;28;19925;-73
2022/04/07 05:06:37;;;;;;;;;;;10.10;99.90;;;;;;5004862;28;19945;-72
2022/04/07 05:09:05;;;;;;;;;;;10.10;99.90;;;;;;5006938;28;19929;-73
2022/04/07 05:11:33;;;;;;;;;;;10.00;99.90;;;;;;5011134;28;20404;-70
2022/04/07 05:14:00;;;;;;;;;;;10.00;99.90;;;;;;5011455;28;19926;-71
2022/04/07 05:16:27;;;;;;;;;;;12.70;99.90;;;;;;5012880;28;19947;-70
2022/04/07 05:18:53;;;;;;;;;;;10.00;99.90;;;;;;5013638;28;20366;-70
2022/04/07 05:21:20;;;;;;;;;;;10.00;99.90;;;;;;5011820;28;19925;-72
2022/04/07 05:23:47;;;;;;;;;;;12.70;99.90;;;;;;5012619;28;19933;-70
2022/04/07 05:26:15;;;;;;;;;;;10.00;99.90;;;;;;5011752;28;19936;-70
2022/04/07 05:28:42;;;;;;;;;;;10.10;99.90;;;;;;5537624;22;19919;-70
2022/04/07 05:31:09;;;;;;;;;;;10.00;99.90;;;;;;5029206;28;20223;-70
2022/04/07 05:33:35;;;;;;;;;;;10.10;99.90;;;;;;5027676;28;19983;-69
2022/04/07 05:36:02;;;;;;;;;;;10.10;99.90;;;;;;5027314;28;20093;-70
2022/04/07 05:38:29;;;;;;;;;;;10.10;99.90;;;;;;5029092;28;20019;-70
2022/04/07 05:40:55;;;;;;;;;;;10.20;99.90;;;;;;5053374;22;19933;-67
2022/04/07 05:43:24;;;;;;;;;;;10.30;99.90;;;;;;5049532;28;20321;-70
2022/04/07 05:45:52;;;;;;;;;;;11.80;99.90;;;;;;5051107;28;19950;-67
2022/04/07 05:48:18;;;;;;;;;;;10.40;99.90;;;;;;5050173;28;19928;-69
2022/04/07 05:50:45;;;;;;;;;;;10.50;99.90;;;;;;5051169;28;20392;-69
2022/04/07 05:53:12;;;;;;;;;;;10.50;99.90;;;;;;5030706;28;20291;-69
2022/04/07 05:55:39;;;;;;;;;;;10.50;99.90;;;;;;5030937;28;19924;-69
2022/04/07 05:58:06;;;;;;;;;;;10.60;99.90;;;;;;5031611;28;20368;-69
2022/04/07 06:00:37;;;;;;;;;;;10.70;99.90;;;;;;5030662;28;19948;-69
2022/04/07 06:03:03;;;;;;;;;;;10.70;99.90;;;;;;5030604;28;19936;-69
2022/04/07 06:05:30;;;;;;;;;;;10.70;99.90;;;;;;5031790;28;19935;-69
2022/04/07 06:08:00;;;;;;;;;;;10.70;99.90;;;;;;5029166;28;19936;-69
2022/04/07 06:10:27;;;;;;;;;;;10.70;99.90;;;;;;5029642;28;21003;-69
2022/04/07 06:12:54;;;;;;;;;;;10.70;99.90;;;;;;5032378;28;19940;-69
2022/04/07 06:15:21;;;;;;;;;;;10.60;99.90;;;;;;5033217;28;19929;-69
2022/04/07 06:17:50;;;;;;;;;;;10.60;99.90;;;;;;5032482;28;19936;-69
2022/04/07 06:20:17;;;;;;;;;;;10.60;99.90;;;;;;5027469;28;19930;-70
2022/04/07 06:22:44;;;;;;;;;;;10.60;99.90;;;;;;5025902;28;19929;-71
2022/04/07 06:25:11;;;;;;;;;;;10.70;99.90;;;;;;5029263;28;20033;-73
2022/04/07 06:27:39;;;;;;;;;;;10.70;99.90;;;;;;5023106;28;19925;-72
2022/04/07 06:30:06;;;;;;;;;;;10.70;99.90;;;;;;5029566;28;19933;-71
2022/04/07 06:32:33;;;;;;;;;;;10.80;99.90;;;;;;5023643;28;20035;-73
2022/04/07 06:35:01;;;;;;;;;;;10.90;99.90;;;;;;5022127;28;19925;-69
2022/04/07 06:37:28;;;;;;;;;;;10.90;99.90;;;;;;5031694;28;19929;-69
2022/04/07 06:39:58;;;;;;;;;;;11.00;99.90;;;;;;5023679;28;19929;-69
2022/04/07 06:42:25;;;;;;;;;;;11.10;99.90;;;;;;5023503;28;19933;-69
2022/04/07 06:44:54;;;;;;;;;;;11.20;99.90;;;;;;5030643;28;19979;-69
2022/04/07 06:47:21;;;;;;;;;;;11.20;99.90;;;;;;5031330;28;19925;-69
2022/04/07 06:49:48;;;;;;;;;;;11.20;99.90;;;;;;5027878;28;19929;-70
2022/04/07 06:52:16;;;;;;;;;;;11.30;99.90;;;;;;5028266;28;20294;-69
2022/04/07 06:54:43;;;;;;;;;;;11.20;99.90;;;;;;5025512;28;19933;-69
2022/04/07 06:57:10;;;;;;;;;;;13.50;99.90;;;;;;5033266;28;19925;-69
2022/04/07 06:59:37;;;;;;;;;;;11.20;99.90;;;;;;5031942;28;20422;-69
2022/04/07 07:02:04;;;;;;;;;;;11.20;99.90;;;;;;5027231;28;19925;-69
2022/04/07 07:04:32;;;;;;;;;;;11.20;99.90;;;;;;5028033;28;20461;-69
2022/04/07 07:06:58;;;;;;;;;;;11.20;99.90;;;;;;5029708;28;20307;-69
2022/04/07 07:09:26;;;;;;;;;;;11.10;99.90;;;;;;5030311;28;19936;-69
2022/04/07 07:11:53;;;;;;;;;;;11.10;99.90;;;;;;5031701;28;19944;-69
2022/04/07 07:14:20;;;;;;;;;;;11.10;99.90;;;;;;5030612;28;19936;-69
2022/04/07 07:16:47;;;;;;;;;;;11.10;99.90;;;;;;5031461;28;20222;-69
2022/04/07 07:19:15;;;;;;;;;;;11.10;99.90;;;;;;5030733;28;19928;-69
2022/04/07 07:21:43;;;;;;;;;;;11.10;99.90;;;;;;5026588;28;19929;-70
2022/04/07 07:24:09;;;;;;;;;;;11.10;99.90;;;;;;5025199;28;20416;-69
2022/04/07 07:26:37;;;;;;;;;;;11.10;99.90;;;;;;5030632;28;19925;-69
2022/04/07 07:29:04;;;;;;;;;;;11.10;99.90;;;;;;5029604;28;20058;-69
2022/04/07 07:31:32;;;;;;;;;;;11.10;99.90;;;;;;5030406;28;20302;-69
2022/04/07 07:33:58;;;;;;;;;;;11.10;99.90;;;;;;5030113;28;19925;-69
2022/04/07 07:36:25;;;;;;;;;;;11.10;99.90;;;;;;5024569;28;19937;-69
2022/04/07 07:38:52;;;;;;;;;;;11.10;99.90;;;;;;5030282;28;19929;-70
2022/04/07 07:41:18;;;;;;;;;;;11.00;99.90;;;;;;5028166;28;19925;-69
2022/04/07 07:43:46;;;;;;;;;;;11.00;99.90;;;;;;5023154;28;19936;-69
2022/04/07 07:46:13;;;;;;;;;;;11.00;99.90;;;;;;5020147;28;19929;-69
2022/04/07 07:48:40;;;;;;;;;;;11.00;99.90;;;;;;5030071;28;19940;-69
2022/04/07 07:51:06;;;;;;;;;;;11.10;99.90;;;;;;5033632;28;20203;-69
2022/04/07 07:53:33;;;;;;;;;;;11.10;99.90;;;;;;5034798;28;19929;-69
2022/04/07 07:56:00;;;;;;;;;;;11.20;99.90;;;;;;5028192;28;19936;-69
2022/04/07 07:58:27;;;;;;;;;;;11.30;99.90;;;;;;5028690;28;20035;-69
2022/04/07 08:00:56;;;;;;;;;;;11.30;99.90;;;;;;5028962;28;19936;-69
2022/04/07 08:03:22;;;;;;;;;;;11.30;99.90;;;;;;5028006;28;20204;-70
2022/04/07 08:05:49;;;;;;;;;;;11.20;99.90;;;;;;5026362;28;19929;-70
2022/04/07 08:08:16;;;;;;;;;;;11.10;99.90;;;;;;5026270;28;19936;-68
2022/04/07 08:10:43;;;;;;;;;;;11.20;99.90;;;;;;5028129;28;20011;-68
2022/04/07 08:13:10;;;;;;;;;;;11.30;99.90;;;;;;5027363;28;20286;-67
2022/04/07 08:15:36;;;;;;;;;;;11.40;99.90;;;;;;5029213;28;20031;-68
2022/04/07 08:18:04;;;;;;;;;;;11.50;99.90;;;;;;5030002;28;20019;-68
2022/04/07 08:20:31;;;;;;;;;;;11.70;99.90;;;;;;5028598;28;19940;-68
2022/04/07 08:22:58;;;;;;;;;;;12.00;99.90;;;;;;5027748;28;19933;-68
2022/04/07 08:25:25;;;;;;;;;;;12.30;99.90;;;;;;5027583;28;19959;-68
2022/04/07 08:27:51;;;;;;;;;;;12.60;99.90;;;;;;5029618;28;20059;-68
2022/04/07 08:30:18;;;;;;;;;;;12.90;99.90;;;;;;5024319;28;19940;-68
2022/04/07 08:32:45;;;;;;;;;;;13.20;99.90;;;;;;5028946;28;19943;-68
2022/04/07 08:35:13;;;;;;;;;;;13.20;99.90;;;;;;5025555;28;20174;-68
2022/04/07 08:37:39;;;;;;;;;;;13.10;99.90;;;;;;5040275;28;19925;-68
2022/04/07 08:40:07;;;;;;;;;;;13.10;99.90;;;;;;5028071;28;19996;-69
2022/04/07 08:42:34;;;;;;;;;;;13.10;99.90;;;;;;5028328;28;19933;-69
2022/04/07 08:45:01;;;;;;;;;;;13.00;99.90;;;;;;5025690;28;19931;-68
2022/04/07 08:47:28;;;;;;;;;;;12.90;99.90;;;;;;5028244;28;19983;-68
2022/04/07 08:49:56;;;;;;;;;;;12.90;99.90;;;;;;5016634;28;20032;-68
2022/04/07 08:52:24;;;;;;;;;;;12.90;99.90;;;;;;5006383;28;20336;-68
2022/04/07 08:54:51;;;;;;;;;;;12.80;99.90;;;;;;5008544;28;20063;-68
2022/04/07 08:57:18;;;;;;;;;;;12.80;99.90;;;;;;5006919;28;20307;-68
2022/04/07 08:59:46;;;;;;;;;;;12.70;99.90;;;;;;5003935;28;19929;-69
2022/04/07 09:02:13;;;;;;;;;;;12.70;99.90;;;;;;5003956;28;19975;-68
2022/04/07 09:04:41;;;;;;;;;;;12.80;99.90;;;;;;5011479;28;19925;-68
2022/04/07 09:07:08;;;;;;;;;;;14.80;99.90;;;;;;5003481;28;19929;-68
2022/04/07 09:09:37;;;;;;;;;;;13.00;99.90;;;;;;5012814;28;19929;-68
2022/04/07 09:12:04;;;;;;;;;;;13.00;99.90;;;;;;5018005;28;19972;-69
2022/04/07 09:14:32;;;;;;;;;;;13.00;99.90;;;;;;5006320;28;20409;-68
2022/04/07 09:16:59;;;;;;;;;;;12.90;99.90;;;;;;5022229;28;20031;-71
2022/04/07 09:19:26;;;;;;;;;;;12.70;99.90;;;;;;5001572;28;20370;-72
2022/04/07 09:22:07;;;;;;;;;;;12.00;99.90;;;;;;5003393;28;19936;-73
2022/04/07 09:24:38;;;;;;;;;;;11.20;99.90;;;;;;5008565;28;20402;-72
2022/04/07 09:27:06;;;;;;;;;;;10.60;99.90;;;;;;5005472;28;19940;-73
2022/04/07 09:29:39;;;;;;;;;;;10.30;99.90;;;;;;5008788;28;20433;-71
2022/04/07 09:32:16;;;;;;;;;;;10.00;99.90;;;;;;5007176;28;19925;-72
2022/04/07 09:34:45;;;;;;;;;;;9.70;99.90;;;;;;5005846;28;19972;-72
2022/04/07 09:37:12;;;;;;;;;;;9.50;99.90;;;;;;5007070;28;19934;-72
2022/04/07 09:39:41;;;;;;;;;;;9.40;99.90;;;;;;5013909;28;19929;-72
2022/04/07 09:42:17;;;;;;;;;;;9.30;99.90;;;;;;5007659;28;19985;-71
2022/04/07 09:44:44;;;;;;;;;;;9.10;99.90;;;;;;5006529;28;19926;-71
2022/04/07 09:47:12;;;;;;;;;;;9.10;99.90;;;;;;5006557;28;19999;-70
2022/04/07 09:49:38;;;;;;;;;;;9.20;99.90;;;;;;5008077;28;19929;-70
2022/04/07 09:52:05;;;;;;;;;;;9.50;99.90;;;;;;5008384;28;19948;-68
2022/04/07 09:54:33;;;;;;;;;;;9.60;99.90;;;;;;5007467;28;19930;-68
2022/04/07 09:57:03;;;;;;;;;;;9.70;99.90;;;;;;5009143;28;20205;-68
2022/04/07 09:59:30;;;;;;;;;;;9.80;99.90;;;;;;5008509;28;19965;-69
2022/04/07 10:01:58;;;;;;;;;;;9.80;99.90;;;;;;5010193;28;19933;-70
2022/04/07 10:04:24;;;;;;;;;;;10.10;99.90;;;;;;5003140;28;19983;-70
2022/04/07 10:06:53;;;;;;;;;;;10.40;99.90;;;;;;5009428;28;20322;-70
2022/04/07 10:09:20;;;;;;;;;;;10.80;99.90;;;;;;5008491;28;20394;-68
2022/04/07 10:11:47;;;;;;;;;;;11.30;99.90;;;;;;5008637;28;20310;-68
2022/04/07 10:14:21;;;;;;;;;;;11.50;99.90;;;;;;5006311;28;19930;-70
2022/04/07 10:16:48;;;;;;;;;;;11.60;99.90;;;;;;5011108;28;19968;-71
2022/04/07 10:19:17;;;;;;;;;;;11.90;99.90;;;;;;5010542;28;20414;-69
2022/04/07 10:21:48;;;;;;;;;;;12.20;99.90;;;;;;5024473;28;19936;-70
2022/04/07 10:24:29;;;;;;;;;;;12.30;99.90;;;;;;4999020;28;20397;-70
2022/04/07 10:26:56;;;;;;;;;;;12.70;99.90;;;;;;5006835;28;19933;-68
2022/04/07 10:29:24;;;;;;;;;;;13.10;99.90;;;;;;5008589;28;19937;-69
2022/04/07 10:32:06;;;;;;;;;;;13.50;99.90;;;;;;5009317;28;19929;-69
2022/04/07 10:34:32;;;;;;;;;;;13.90;99.90;;;;;;5007654;28;19929;-69
2022/04/07 10:37:02;;;;;;;;;;;14.20;99.90;;;;;;5012487;28;20005;-68
2022/04/07 10:39:32;;;;;;;;;;;14.60;99.90;;;;;;5013005;28;20302;-69
2022/04/07 10:41:59;;;;;;;;;;;14.90;99.90;;;;;;5004290;28;20422;-69
2022/04/07 10:44:29;;;;;;;;;;;15.10;99.90;;;;;;5013161;28;20048;-69
2022/04/07 10:47:01;;;;;;;;;;;15.20;99.90;;;;;;5006887;28;19933;-68
2022/04/07 10:49:28;;;;;;;;;;;15.20;99.90;;;;;;4998276;28;20356;-69
2022/04/07 10:51:55;;;;;;;;;;;15.20;99.90;;;;;;5010655;28;19930;-69
2022/04/07 10:54:22;;;;;;;;;;;15.50;99.90;;;;;;5004867;28;19936;-69
2022/04/07 10:56:50;;;;;;;;;;;15.70;99.90;;;;;;5003634;28;19935;-69
2022/04/07 10:59:21;;;;;;;;;;;15.80;99.90;;;;;;5006220;28;19933;-69
2022/04/07 11:01:56;;;;;;;;;;;15.80;99.90;;;;;;5013144;28;19925;-68
2022/04/07 11:04:36;;;;;;;;;;;15.90;99.90;;;;;;5008170;28;19929;-73
2022/04/07 11:07:15;;;;;;;;;;;15.80;99.90;;;;;;5015365;28;19936;-74
2022/04/07 11:09:46;;;;;;;;;;;15.80;99.90;;;;;;5008490;28;20028;-71
2022/04/07 11:12:16;;;;;;;;;;;16.00;99.90;;;;;;5004976;28;19972;-72
2022/04/07 11:14:43;;;;;;;;;;;16.20;99.90;;;;;;5004501;28;19970;-72
2022/04/07 11:17:15;;;;;;;;;;;16.30;99.90;;;;;;5008648;28;19938;-71
2022/04/07 11:19:50;;;;;;;;;;;16.50;99.90;;;;;;5009893;28;20341;-72
2022/04/07 11:22:19;;;;;;;;;;;17.90;99.90;;;;;;5011004;28;20288;-72
2022/04/07 11:24:47;;;;;;;6.15;2.95;;;17.20;99.90;;;;;;5007581;28;20024;-72
2022/04/07 11:27:34;;;;;;;8.97;3.27;;;17.40;99.90;;;;;;5009684;28;20277;-72
2022/04/07 11:30:06;;;;;;;9.17;3.30;;;18.80;99.90;;;;;;5009338;28;20312;-73
2022/04/07 11:32:36;;;;;;;7.10;2.93;;;16.80;99.90;;;;;;5006290;28;20719;-73
2022/04/07 11:35:14;;;;;;;7.83;3.07;;;16.60;99.90;;;;;;4999096;28;20233;-72
2022/04/07 11:37:42;;;;;;;6.53;2.80;;;16.60;99.90;;;;;;5009561;28;20336;-69
2022/04/07 11:40:10;;;;;;;6.70;2.80;;;16.60;99.90;;;;;;5001158;28;20556;-71
2022/04/07 11:42:38;;;;;;;7.73;3.00;;;16.50;99.90;;;;;;5003082;28;20247;-70
2022/04/07 11:45:07;;;;;;;9.70;3.27;;;16.20;99.90;;;;;;5013510;28;20206;-71
2022/04/07 11:47:37;;;;;;;9.87;3.60;;;16.00;99.90;;;;;;5008692;28;20219;-71
2022/04/07 11:50:06;;;;;;;9.70;3.33;;;15.30;99.90;;;;;;5006245;28;20324;-69
2022/04/07 11:52:37;;;;;;;9.73;3.33;;;15.50;99.90;;;;;;5002956;28;20219;-69
2022/04/07 11:55:05;;;;;;;12.00;3.97;;;15.20;99.90;;;;;;5006100;28;20235;-67
2022/04/07 11:57:33;;;;;;;11.00;3.97;;;15.20;99.90;;;;;;5001766;28;20216;-68
2022/04/07 12:00:02;;;;;;;10.00;3.37;;;15.50;99.90;;;;;;5007810;28;20207;-67
2022/04/07 12:02:39;;;;;;;7.93;3.13;;;15.80;99.90;;;;;;5005701;28;20332;-68
2022/04/07 12:05:07;;;;;;;9.10;3.30;;;16.20;99.90;;;;;;4999187;28;20214;-68
2022/04/07 12:07:34;;;;;;;9.40;3.53;;;16.50;99.90;;;;;;5005937;28;20280;-69
2022/04/07 12:10:08;;;;;;;8.00;3.40;;;16.70;99.90;;;;;;5004759;28;20240;-69
2022/04/07 12:12:35;;;;;;;7.87;3.17;;;16.80;99.90;;;;;;5004185;28;20233;-69
2022/04/07 12:15:02;;;;;;;7.07;2.90;;;16.80;99.90;;;;;;4999167;28;20213;-69
2022/04/07 12:17:34;;;;;;;10.03;3.50;;;16.90;99.90;;;;;;5003558;28;20207;-69
2022/04/07 12:20:03;;;;;;;10.83;3.77;;;17.10;99.90;;;;;;5000673;28;20242;-69
2022/04/07 12:22:31;;;;;;;7.47;2.83;;;17.40;99.90;;;;;;5515468;23;20235;-69
2022/04/07 12:24:59;;;;;;;8.60;3.50;;;17.50;99.90;;;;;;4981169;28;20384;-72
2022/04/07 12:27:28;;;;;;;10.87;3.87;;;17.70;99.90;;;;;;4985621;28;20547;-69
2022/04/07 12:29:55;;;;;;;7.43;2.83;;;17.60;99.90;;;;;;4976438;28;20293;-71
2022/04/07 12:32:21;;;;;;;9.80;3.77;;;17.30;99.90;;;;;;4956431;28;20310;-69
2022/04/07 12:34:56;;;;;;;8.77;3.47;;;16.90;99.90;;;;;;4946848;28;20221;-69
2022/04/07 12:37:33;;;;;;;10.43;3.30;;;15.70;99.90;;;;;;5003443;23;20241;-72
2022/04/07 12:40:00;;;;;;;11.40;3.50;;;15.50;99.90;;;;;;5007292;28;20203;-73
2022/04/07 12:42:27;;;;;;;12.23;3.60;;;14.70;99.90;;;;;;5000271;28;20207;-72
2022/04/07 12:45:05;;;;;;;13.97;4.03;;;14.10;99.90;;;;;;4991130;28;20218;-73
2022/04/07 12:47:32;;;;;;;13.80;4.07;;;13.60;99.90;;;;;;4999897;28;20227;-73
2022/04/07 12:50:01;;;;;;;14.03;3.93;;;13.50;99.90;;;;;;4999961;28;20640;-73
2022/04/07 12:52:41;;;;;;;14.80;3.63;;;13.50;99.90;;;;;;4999260;28;20207;-71
2022/04/07 12:55:11;;;;;;;11.87;3.73;;;13.20;99.90;;;;;;5008491;28;20217;-72
2022/04/07 12:57:40;;;;;;;13.33;4.10;;;12.80;99.90;;;;;;5008806;28;20233;-72
2022/04/07 13:00:10;;;;;;;15.77;4.67;;;12.70;99.90;;;;;;5004082;28;20600;-71
2022/04/07 13:02:47;;;;;;;13.70;4.03;;;12.80;99.90;;;;;;4998233;28;20215;-68
2022/04/07 13:05:15;;;;;;;17.67;5.10;;;12.50;99.90;;;;;;5004435;28;20215;-69
2022/04/07 13:07:43;;;;;;;16.93;4.43;;;12.20;99.90;;;;;;4987316;28;20230;-69
2022/04/07 13:10:10;;;;;;;19.63;4.67;;;11.70;99.90;;;;;;5017282;28;20238;-69
2022/04/07 13:12:38;;;;;;;10.80;3.10;;;11.20;99.90;;;;;;5006452;28;20269;-69
2022/04/07 13:15:06;;;;;;;15.50;3.97;;;10.80;99.90;;;;;;4999836;28;20207;-70
2022/04/07 13:17:33;;;;;;;15.83;3.70;;;10.80;99.90;;;;;;5001251;28;20230;-68
2022/04/07 13:20:01;;;;;;;13.60;3.73;;;11.40;99.90;;;;;;5007307;28;20651;-69
2022/04/07 13:22:29;;;;;;;11.77;3.73;;;12.00;99.90;;;;;;5003784;28;20762;-69
2022/04/07 13:24:57;;;;;;;15.10;4.33;;;12.50;99.90;;;;;;5004211;28;20364;-70
2022/04/07 13:27:24;;;;;;;14.40;3.63;;;12.10;99.90;;;;;;4997103;28;20222;-68
2022/04/07 13:29:52;;;;;;;15.07;4.17;;;12.40;99.90;;;;;;5008888;28;20726;-71
2022/04/07 13:32:22;;;;;;;16.80;3.80;;;12.50;99.90;;;;;;4998997;28;20773;-71
2022/04/07 13:34:49;;;;;;;11.63;3.57;;;12.80;99.90;;;;;;4990828;28;20203;-71
2022/04/07 13:37:16;;;;;;;11.77;4.10;;;13.20;99.90;;;;;;5002324;28;20238;-69
2022/04/07 13:39:43;;;;;;;13.33;3.47;;;13.60;99.90;;;;;;5009347;28;20226;-69
2022/04/07 13:42:11;;;;;;;11.13;3.37;;;13.80;99.90;;;;;;5013189;28;20215;-69
2022/04/07 13:44:38;;;;;;;11.60;3.10;;;14.10;99.90;;;;;;5016497;28;20243;-71
2022/04/07 13:47:06;;;;;;;14.63;3.80;;;14.10;99.90;;;;;;5002437;28;20222;-69
2022/04/07 13:49:34;;;;;;;14.83;3.93;;;14.20;99.90;;;;;;5010033;28;20206;-69
2022/04/07 13:52:01;;;;;;;15.80;4.43;;;14.20;99.90;;;;;;5011543;28;20235;-68
2022/04/07 13:54:28;;;;;;;12.60;3.20;;;14.00;99.90;;;;;;5008868;28;20207;-68
2022/04/07 13:56:55;;;;;;;14.70;3.83;;;13.90;99.90;;;;;;4989154;28;20214;-69
2022/04/07 13:59:23;;;;;;;14.13;3.93;;;13.70;99.90;;;;;;5006994;28;20207;-68
2022/04/07 14:01:51;;;;;;;14.13;3.70;;;13.70;99.90;;;;;;4998551;28;20206;-69